This is the latest recevied weather packets stored in our database for station/object OE6CBX-1. If no packets are shown the sender has not sent any weather packets the latest 10 day(s).
| Time | Temp. | Humidity | Pressure | Rain* | Wind** | Luminosity | Snow |
|---|---|---|---|---|---|---|---|
| 1777200443 | 26.11° C | 19% | 980 hPa | - | - | - | - |
| 1777200031 | 25.56° C | 29% | 979.9 hPa | - | - | - | - |
| 1777199866 | 30.56° C | 20% | 979.9 hPa | - | - | - | - |
| 1777199208 | 33.33° C | 8% | 979.9 hPa | - | - | - | - |
| 1777198308 | 28.89° C | 10% | 980.1 hPa | - | - | - | - |
| 1777197408 | 27.78° C | 11% | 980.1 hPa | - | - | - | - |
| 1777196508 | 27.22° C | 12% | 980 hPa | - | - | - | - |
| 1777195608 | 26.11° C | 13% | 980 hPa | - | - | - | - |
| 1777194708 | 26.11° C | 14% | 980 hPa | - | - | - | - |
| 1777193807 | 25.56° C | 14% | 979.9 hPa | - | - | - | - |
| 1777192907 | 26.67° C | 14% | 979.9 hPa | - | - | - | - |
| 1777192007 | 26.67° C | 14% | 979.9 hPa | - | - | - | - |
| 1777191107 | 26.67° C | 13% | 979.9 hPa | - | - | - | - |
| 1777190207 | 26.11° C | 16% | 979.9 hPa | - | - | - | - |
| 1777189307 | 25.56° C | 24% | 979.8 hPa | - | - | - | - |
| 1777188407 | 23.33° C | 28% | 979.8 hPa | - | - | - | - |
| 1777187507 | 21.67° C | 32% | 979.7 hPa | - | - | - | - |
| 1777186607 | 20° C | 35% | 979.8 hPa | - | - | - | - |
| 1777185707 | 17.22° C | 40% | 979.7 hPa | - | - | - | - |
| 1777184807 | 16.67° C | 39% | 979.7 hPa | - | - | - | - |
| 1777183907 | 16.67° C | 40% | 979.6 hPa | - | - | - | - |
| 1777183007 | 15.56° C | 40% | 979.6 hPa | - | - | - | - |
| 1777182107 | 14.44° C | 41% | 979.6 hPa | - | - | - | - |
| 1777181207 | 13.33° C | 45% | 979.3 hPa | - | - | - | - |
| 1777180307 | 12.22° C | 48% | 979.3 hPa | - | - | - | - |
* Rain since midnight (hover to see other rain measurements)
** Current wind speed in m/s (hover to see current wind gust speed)